createdAt,value
2022-08-19T00:00:09.485Z,1.83
2022-08-19T00:01:11.637Z,3.25
2022-08-19T00:02:13.445Z,3.30
2022-08-19T00:03:15.301Z,1.55
2022-08-19T00:04:19.772Z,2.00
2022-08-19T00:05:23.280Z,1.85
2022-08-19T00:06:25.995Z,1.73
2022-08-19T00:07:27.813Z,1.95
2022-08-19T00:08:29.793Z,2.47
2022-08-19T00:09:31.778Z,2.38
2022-08-19T00:10:35.086Z,2.85
2022-08-19T00:11:38.512Z,1.38
2022-08-19T00:12:46.790Z,2.55
2022-08-19T00:13:51.107Z,1.38
2022-08-19T00:14:55.099Z,1.83
2022-08-19T00:15:59.652Z,2.40
2022-08-19T00:17:03.505Z,1.92
2022-08-19T00:18:05.444Z,1.75
2022-08-19T00:19:07.833Z,2.13
2022-08-19T00:20:11.717Z,1.50
2022-08-19T00:21:13.849Z,1.38
2022-08-19T00:22:16.962Z,2.72
2022-08-19T00:23:19.910Z,1.98
2022-08-19T00:24:21.691Z,3.28
2022-08-19T00:25:30.372Z,2.50
2022-08-19T00:26:32.688Z,2.20
2022-08-19T00:27:34.893Z,1.58
2022-08-19T00:28:36.957Z,2.92
2022-08-19T00:29:39.483Z,1.83
2022-08-19T00:30:41.954Z,2.80
2022-08-19T00:31:44.973Z,2.03
2022-08-19T00:32:47.044Z,1.95
2022-08-19T00:33:51.594Z,2.67
2022-08-19T00:34:54.481Z,2.33
2022-08-19T00:35:56.466Z,2.42
2022-08-19T00:36:58.635Z,2.55
2022-08-19T00:38:00.667Z,2.38
2022-08-19T00:39:02.651Z,1.73
2022-08-19T00:40:06.397Z,3.88
2022-08-19T00:41:09.825Z,1.98
2022-08-19T00:42:12.401Z,2.25
2022-08-19T00:43:19.815Z,2.58
2022-08-19T00:44:29.644Z,1.55
2022-08-19T00:45:32.734Z,2.85
2022-08-19T00:46:40.898Z,3.50
2022-08-19T00:47:42.769Z,1.67
2022-08-19T00:48:44.590Z,3.03
2022-08-19T00:49:52.330Z,2.47
2022-08-19T00:50:56.611Z,1.70
2022-08-19T00:52:09.896Z,2.88
2022-08-19T00:53:18.729Z,2.35
2022-08-19T00:54:26.214Z,1.65
2022-08-19T00:55:34.546Z,2.10
2022-08-19T00:56:37.562Z,2.42
2022-08-19T00:57:42.856Z,3.03
2022-08-19T00:58:45.239Z,2.28
2022-08-19T01:00:01.568Z,1.35
2022-08-19T01:01:05.717Z,3.13
2022-08-19T01:02:08.428Z,2.17
2022-08-19T01:03:20.379Z,1.85
2022-08-19T01:04:22.267Z,2.00
2022-08-19T01:05:28.632Z,2.53
2022-08-19T01:06:33.281Z,2.67
2022-08-19T01:07:38.184Z,1.80
2022-08-19T01:08:40.310Z,1.83
2022-08-19T01:09:42.101Z,2.25
2022-08-19T01:10:51.313Z,1.88
2022-08-19T01:11:54.135Z,3.45
2022-08-19T01:12:57.087Z,1.83
2022-08-19T01:13:59.964Z,2.95
2022-08-19T01:15:02.842Z,1.70
2022-08-19T01:16:09.200Z,2.78
2022-08-19T01:17:12.518Z,2.53
2022-08-19T01:18:16.488Z,2.50
2022-08-19T01:19:28.821Z,2.25
2022-08-19T01:20:30.784Z,1.80
2022-08-19T01:21:38.848Z,3.05
2022-08-19T01:22:53.407Z,1.80
2022-08-19T01:23:55.591Z,2.90
2022-08-19T01:24:57.876Z,1.58
2022-08-19T01:26:02.020Z,2.25
2022-08-19T01:27:08.279Z,1.73
2022-08-19T01:28:33.735Z,2.67
2022-08-19T01:29:39.476Z,3.10
2022-08-19T01:30:44.467Z,2.25
2022-08-19T01:31:54.363Z,1.77
2022-08-19T01:32:56.992Z,3.10
2022-08-19T01:33:59.252Z,1.83
2022-08-19T01:35:03.189Z,1.75
2022-08-19T01:36:08.364Z,3.08
2022-08-19T01:37:12.411Z,3.03
2022-08-19T01:38:24.660Z,1.88
2022-08-19T01:39:27.843Z,1.45
2022-08-19T01:40:34.320Z,2.47
2022-08-19T01:41:36.416Z,2.40
2022-08-19T01:42:38.306Z,2.70
2022-08-19T01:44:12.372Z,1.83
2022-08-19T01:45:03.546Z,2.22
2022-08-19T01:46:05.793Z,2.40
2022-08-19T01:47:09.225Z,1.65
2022-08-19T01:48:11.619Z,1.58
2022-08-19T01:49:13.541Z,2.58
2022-08-19T01:50:15.636Z,1.42
2022-08-19T01:51:18.110Z,1.92
2022-08-19T01:52:20.859Z,2.03
2022-08-19T01:53:22.741Z,3.13
2022-08-19T01:54:28.850Z,1.52
2022-08-19T01:55:31.268Z,2.33
2022-08-19T01:56:33.083Z,3.30
2022-08-19T01:57:35.353Z,1.50
2022-08-19T01:58:41.885Z,1.50
2022-08-19T01:59:45.793Z,2.45
2022-08-19T02:00:47.820Z,1.40
2022-08-19T02:01:49.853Z,3.00
2022-08-19T02:02:51.897Z,2.65
2022-08-19T02:03:56.930Z,1.67
2022-08-19T02:05:00.323Z,2.72
2022-08-19T02:06:06.745Z,1.98
2022-08-19T02:07:09.261Z,2.38
2022-08-19T02:08:12.048Z,2.28
2022-08-19T02:09:13.924Z,2.22
2022-08-19T02:10:20.629Z,2.30
2022-08-19T02:11:27.764Z,1.70
2022-08-19T02:12:29.793Z,2.67
2022-08-19T02:13:33.947Z,2.45
2022-08-19T02:14:37.493Z,1.60
2022-08-19T02:15:39.584Z,1.92
2022-08-19T02:16:41.767Z,2.08
2022-08-19T02:17:43.838Z,1.70
2022-08-19T02:18:46.587Z,1.73
2022-08-19T02:19:48.923Z,2.08
2022-08-19T02:20:50.883Z,4.25
2022-08-19T02:21:52.744Z,2.05
2022-08-19T02:22:54.795Z,2.67
2022-08-19T02:23:57.015Z,2.42
2022-08-19T02:24:58.832Z,1.70
2022-08-19T02:26:00.788Z,1.83
2022-08-19T02:27:02.570Z,2.40
2022-08-19T02:28:05.108Z,1.70
2022-08-19T02:29:06.906Z,2.20
2022-08-19T02:30:14.090Z,1.83
2022-08-19T02:31:21.449Z,1.50
2022-08-19T02:32:23.299Z,1.70
2022-08-19T02:33:25.405Z,1.67
2022-08-19T02:34:27.248Z,2.03
2022-08-19T02:35:29.311Z,1.70
2022-08-19T02:36:31.355Z,2.25
2022-08-19T02:37:51.853Z,1.75
2022-08-19T02:38:55.539Z,3.10
2022-08-19T02:39:58.348Z,2.92
2022-08-19T02:41:06.887Z,2.60
2022-08-19T02:42:08.693Z,1.67
2022-08-19T02:43:10.904Z,2.00
2022-08-19T02:44:26.477Z,1.90
2022-08-19T02:45:41.515Z,3.10
2022-08-19T02:46:45.984Z,2.47
2022-08-19T02:47:48.361Z,2.72
2022-08-19T02:48:55.037Z,2.55
2022-08-19T02:49:56.916Z,3.42
2022-08-19T02:50:58.751Z,2.13
2022-08-19T02:52:00.544Z,3.25
2022-08-19T02:53:02.336Z,2.40
2022-08-19T02:54:05.540Z,4.72
2022-08-19T02:55:07.984Z,2.22
2022-08-19T02:56:09.814Z,2.55
2022-08-19T02:57:12.081Z,2.15
2022-08-19T02:58:15.715Z,2.25
2022-08-19T02:59:17.535Z,3.33
2022-08-19T03:00:22.308Z,2.50
2022-08-19T03:01:32.978Z,3.10
2022-08-19T03:02:34.840Z,2.25
2022-08-19T03:03:36.810Z,2.65
2022-08-19T03:04:38.680Z,2.40
2022-08-19T03:05:48.301Z,4.28
2022-08-19T03:07:02.583Z,2.92
2022-08-19T03:08:14.231Z,2.55
2022-08-19T03:09:17.047Z,2.90
2022-08-19T03:10:19.386Z,3.17
2022-08-19T03:11:24.636Z,2.30
2022-08-19T03:12:26.491Z,2.40
2022-08-19T03:13:29.163Z,2.45
2022-08-19T03:14:35.116Z,2.05
2022-08-19T03:15:41.234Z,3.10
2022-08-19T03:16:46.378Z,2.92
2022-08-19T03:17:48.160Z,2.28
2022-08-19T03:18:50.383Z,2.42
2022-08-19T03:19:52.453Z,2.30
2022-08-19T03:20:55.630Z,4.03
2022-08-19T03:21:57.465Z,2.20
2022-08-19T03:22:59.621Z,2.50
2022-08-19T03:24:05.484Z,2.85
2022-08-19T03:25:07.481Z,2.97
2022-08-19T03:26:16.491Z,3.28
2022-08-19T03:27:18.784Z,2.67
2022-08-19T03:28:21.752Z,3.80
2022-08-19T03:29:31.172Z,3.72
2022-08-19T03:30:33.744Z,2.53
2022-08-19T03:31:43.976Z,3.95
2022-08-19T03:32:57.091Z,4.35
2022-08-19T03:33:59.146Z,2.45
2022-08-19T03:35:01.335Z,3.00
2022-08-19T03:36:06.523Z,2.80
2022-08-19T03:37:15.070Z,3.28
2022-08-19T03:38:16.853Z,2.97
2022-08-19T03:39:19.044Z,3.35
2022-08-19T03:40:21.056Z,2.58
2022-08-19T03:41:25.723Z,3.75
2022-08-19T03:42:49.242Z,2.80
2022-08-19T03:43:53.044Z,2.97
2022-08-19T03:44:54.928Z,2.80
2022-08-19T03:46:13.492Z,2.83
2022-08-19T03:47:17.964Z,4.93
2022-08-19T03:48:19.818Z,2.35
2022-08-19T03:49:27.118Z,2.92
2022-08-19T03:50:30.672Z,2.55
2022-08-19T03:51:36.047Z,4.57
2022-08-19T03:52:38.378Z,2.55
2022-08-19T03:53:40.529Z,3.05
2022-08-19T03:54:43.039Z,2.85
2022-08-19T03:55:45.532Z,3.22
2022-08-19T03:56:49.755Z,3.05
2022-08-19T03:57:51.550Z,3.60
2022-08-19T03:58:53.675Z,2.75
2022-08-19T03:59:55.472Z,2.47
2022-08-19T04:01:12.313Z,3.40
2022-08-19T04:02:14.831Z,3.90
2022-08-19T04:03:17.241Z,2.55
2022-08-19T04:04:20.095Z,2.85
2022-08-19T04:05:21.923Z,2.90
2022-08-19T04:06:32.340Z,4.72
2022-08-19T04:07:34.851Z,2.63
2022-08-19T04:08:36.662Z,3.80
2022-08-19T04:09:38.782Z,2.92
2022-08-19T04:10:41.656Z,2.72
2022-08-19T04:11:48.741Z,3.55
2022-08-19T04:12:50.928Z,3.10
2022-08-19T04:13:54.944Z,3.28
2022-08-19T04:14:56.766Z,2.70
2022-08-19T04:15:58.607Z,3.10
2022-08-19T04:17:01.774Z,3.00
2022-08-19T04:18:03.700Z,2.83
2022-08-19T04:19:06.844Z,2.97
2022-08-19T04:20:08.981Z,2.72
2022-08-19T04:21:20.979Z,5.53
2022-08-19T04:22:22.776Z,3.63
2022-08-19T04:23:24.815Z,2.60
2022-08-19T04:24:27.314Z,3.45
2022-08-19T04:25:29.105Z,3.85
2022-08-19T04:26:34.975Z,3.65
2022-08-19T04:27:36.697Z,3.70
2022-08-19T04:28:38.525Z,4.28
2022-08-19T04:29:41.467Z,3.63
2022-08-19T04:30:46.415Z,4.13
2022-08-19T04:31:48.985Z,3.53
2022-08-19T04:32:51.840Z,3.97
2022-08-19T04:33:58.600Z,2.90
2022-08-19T04:35:02.021Z,3.55
2022-08-19T04:36:20.587Z,4.20
2022-08-19T04:37:22.728Z,3.67
2022-08-19T04:38:24.823Z,4.03
2022-08-19T04:39:49.903Z,3.45
2022-08-19T04:41:11.387Z,3.33
2022-08-19T04:42:32.580Z,3.28
2022-08-19T04:43:36.339Z,3.53
2022-08-19T04:44:46.109Z,3.67
2022-08-19T04:45:48.172Z,3.15
2022-08-19T04:46:52.109Z,2.83
2022-08-19T04:47:58.875Z,3.25
2022-08-19T04:49:23.350Z,3.60
2022-08-19T04:50:27.330Z,3.28
2022-08-19T04:51:32.234Z,3.85
2022-08-19T04:52:34.330Z,3.95
2022-08-19T04:53:38.851Z,3.45
2022-08-19T04:54:40.680Z,4.13
2022-08-19T04:55:43.710Z,3.65
2022-08-19T04:56:45.609Z,3.80
2022-08-19T04:57:47.599Z,3.70
2022-08-19T04:58:52.588Z,5.28
2022-08-19T04:59:57.712Z,4.38
2022-08-19T05:01:01.241Z,3.47
2022-08-19T05:02:05.349Z,4.65
2022-08-19T05:03:07.791Z,4.18
2022-08-19T05:04:10.569Z,4.10
2022-08-19T05:05:13.628Z,4.28
2022-08-19T05:06:18.230Z,3.90
2022-08-19T05:07:20.053Z,4.30
2022-08-19T05:08:31.392Z,4.68
2022-08-19T05:09:57.132Z,5.28
2022-08-19T05:10:55.605Z,4.18
2022-08-19T05:11:57.442Z,4.47
2022-08-19T05:12:59.818Z,4.10
2022-08-19T05:14:02.359Z,4.30
2022-08-19T05:15:06.768Z,5.38
2022-08-19T05:16:08.565Z,4.50
2022-08-19T05:18:50.576Z,5.53
2022-08-19T05:20:10.911Z,4.43
2022-08-19T05:21:34.329Z,4.43
2022-08-19T05:22:36.589Z,4.45
2022-08-19T05:23:38.450Z,4.88
2022-08-19T05:24:56.485Z,4.47
2022-08-19T05:26:02.415Z,5.13
2022-08-19T05:27:06.603Z,5.63
2022-08-19T05:28:08.379Z,5.10
2022-08-19T05:29:11.226Z,5.05
2022-08-19T05:30:13.443Z,5.50
2022-08-19T05:31:15.453Z,5.55
2022-08-19T05:32:17.756Z,4.82
2022-08-19T05:33:19.949Z,5.55
2022-08-19T05:34:24.197Z,5.28
2022-08-19T05:35:25.983Z,4.90
2022-08-19T05:36:28.899Z,5.40
2022-08-19T05:37:30.838Z,6.05
2022-08-19T05:38:32.592Z,4.95
2022-08-19T05:39:38.129Z,5.75
2022-08-19T05:40:40.259Z,4.95
2022-08-19T05:41:47.385Z,7.00
2022-08-19T05:42:54.779Z,5.78
2022-08-19T05:43:59.025Z,6.05
2022-08-19T05:45:00.931Z,6.78
2022-08-19T05:46:02.957Z,5.65
2022-08-19T05:47:07.505Z,6.25
2022-08-19T05:48:14.061Z,8.07
2022-08-19T05:49:17.425Z,5.97
2022-08-19T05:50:19.258Z,6.47
2022-08-19T05:51:21.098Z,5.32
2022-08-19T05:52:25.908Z,5.90
2022-08-19T05:53:28.256Z,5.80
2022-08-19T05:54:31.291Z,6.05
2022-08-19T05:55:34.086Z,7.40
2022-08-19T05:56:39.058Z,5.82
2022-08-19T05:57:41.069Z,6.47
2022-08-19T05:58:44.055Z,5.97
2022-08-19T05:59:49.432Z,6.35
2022-08-19T06:00:55.301Z,6.03
2022-08-19T06:01:58.273Z,6.57
2022-08-19T06:03:11.959Z,6.65
2022-08-19T06:04:15.023Z,6.18
2022-08-19T06:05:16.891Z,6.15
2022-08-19T06:06:19.902Z,7.68
2022-08-19T06:07:21.850Z,6.60
2022-08-19T06:08:34.475Z,5.80
2022-08-19T06:09:38.444Z,6.45
2022-08-19T06:10:40.421Z,6.07
2022-08-19T06:11:59.300Z,7.03
2022-08-19T06:13:01.311Z,7.10
2022-08-19T06:14:16.495Z,6.45
2022-08-19T06:15:18.912Z,5.80
2022-08-19T06:16:23.379Z,6.30
2022-08-19T06:17:26.957Z,7.05
2022-08-19T06:18:29.033Z,6.40
2022-08-19T06:19:31.609Z,6.32
2022-08-19T06:20:54.497Z,6.38
2022-08-19T06:21:55.372Z,5.72
2022-08-19T06:22:57.205Z,6.43
2022-08-19T06:23:59.929Z,6.25
2022-08-19T06:25:01.968Z,6.47
2022-08-19T06:26:03.859Z,6.18
2022-08-19T06:27:06.760Z,6.28
2022-08-19T06:28:15.946Z,6.55
2022-08-19T06:29:23.665Z,6.50
2022-08-19T06:30:26.156Z,6.00
2022-08-19T06:31:30.011Z,5.75
2022-08-19T06:32:32.384Z,6.65
2022-08-19T06:33:34.850Z,5.90
2022-08-19T06:34:37.355Z,5.97
2022-08-19T06:35:43.276Z,6.95
2022-08-19T06:36:48.616Z,5.95
2022-08-19T06:37:50.446Z,6.07
2022-08-19T06:38:52.333Z,6.85
2022-08-19T06:39:54.175Z,6.85
2022-08-19T06:41:07.402Z,5.90
2022-08-19T06:42:12.901Z,6.75
2022-08-19T06:43:18.521Z,6.78
2022-08-19T06:44:23.403Z,6.20
2022-08-19T06:45:34.947Z,6.68
2022-08-19T06:46:38.914Z,5.90
2022-08-19T06:47:45.004Z,6.05
2022-08-19T06:48:50.648Z,6.25
2022-08-19T06:50:01.080Z,5.53
2022-08-19T06:51:08.799Z,6.32
2022-08-19T06:52:14.219Z,6.55
2022-08-19T06:53:16.129Z,6.18
2022-08-19T06:54:19.963Z,6.20
2022-08-19T06:55:22.274Z,5.90
2022-08-19T06:56:35.605Z,6.88
2022-08-19T06:57:37.457Z,6.15
2022-08-19T06:58:39.517Z,6.13
2022-08-19T06:59:41.808Z,5.97
2022-08-19T07:00:43.841Z,5.93
2022-08-19T07:01:49.425Z,6.30
2022-08-19T07:02:54.268Z,5.93
2022-08-19T07:03:59.346Z,5.85
2022-08-19T07:05:04.674Z,6.10
2022-08-19T07:06:21.333Z,6.03
2022-08-19T07:07:35.152Z,5.80
2022-08-19T07:08:42.098Z,6.40
2022-08-19T07:09:46.205Z,6.18
2022-08-19T07:11:02.000Z,6.05
2022-08-19T07:12:14.508Z,5.68
2022-08-19T07:13:16.407Z,6.35
2022-08-19T07:14:21.128Z,6.88
2022-08-19T07:15:24.749Z,5.97
2022-08-19T07:16:29.400Z,5.72
2022-08-19T07:17:34.639Z,6.00
2022-08-19T07:18:37.405Z,6.25
2022-08-19T07:19:42.181Z,6.65
2022-08-19T07:20:44.155Z,6.00
2022-08-19T07:21:50.993Z,6.07
2022-08-19T07:22:53.006Z,5.80
2022-08-19T07:23:57.542Z,6.57
2022-08-19T07:24:59.315Z,5.55
2022-08-19T07:26:14.795Z,5.63
2022-08-19T07:27:17.112Z,6.43
2022-08-19T07:28:24.171Z,5.40
2022-08-19T07:29:28.435Z,5.55
2022-08-19T07:30:31.507Z,5.43
2022-08-19T07:31:37.841Z,5.45
2022-08-19T07:32:41.471Z,5.55
2022-08-19T07:33:44.145Z,6.60
2022-08-19T07:34:46.513Z,5.75
2022-08-19T07:35:48.987Z,5.80
2022-08-19T07:36:51.613Z,6.18
2022-08-19T07:37:54.295Z,5.90
2022-08-19T07:38:56.281Z,5.40
2022-08-19T07:39:58.159Z,6.03
2022-08-19T07:41:00.281Z,6.03
2022-08-19T07:42:07.456Z,6.43
2022-08-19T07:43:13.930Z,6.10
2022-08-19T07:44:16.994Z,6.35
2022-08-19T07:45:18.844Z,5.55
2022-08-19T07:46:24.026Z,6.00
2022-08-19T07:47:49.644Z,5.32
2022-08-19T07:48:50.255Z,6.00
2022-08-19T07:49:52.251Z,5.45
2022-08-19T07:50:58.827Z,5.53
2022-08-19T07:52:05.924Z,5.68
2022-08-19T07:53:07.897Z,5.47
2022-08-19T07:54:09.825Z,5.78
2022-08-19T07:55:42.652Z,5.30
2022-08-19T07:56:33.601Z,5.63
2022-08-19T07:57:35.456Z,5.07
2022-08-19T07:58:40.154Z,6.03
2022-08-19T07:59:42.039Z,5.65
2022-08-19T08:00:46.920Z,5.25
2022-08-19T08:01:50.190Z,5.85
2022-08-19T08:02:55.799Z,5.30
2022-08-19T08:04:17.725Z,5.78
2022-08-19T08:05:41.714Z,5.65
2022-08-19T08:07:03.814Z,5.38
2022-08-19T08:08:47.348Z,5.50
2022-08-19T08:09:51.152Z,4.82
2022-08-19T08:10:56.794Z,5.75
2022-08-19T08:12:13.348Z,5.28
2022-08-19T08:13:27.482Z,5.10
2022-08-19T08:14:35.117Z,5.70
2022-08-19T08:15:43.045Z,5.25
2022-08-19T08:16:47.170Z,5.82
2022-08-19T08:17:51.697Z,6.05
2022-08-19T08:18:53.828Z,5.82
2022-08-19T08:19:55.922Z,5.75
2022-08-19T08:20:58.870Z,5.28
2022-08-19T08:22:02.497Z,5.80
2022-08-19T08:23:23.257Z,5.45
2022-08-19T08:24:28.483Z,6.07
2022-08-19T08:25:32.341Z,5.25
2022-08-19T08:26:34.636Z,6.22
2022-08-19T08:27:42.020Z,5.95
2022-08-19T08:28:47.993Z,5.50
2022-08-19T08:29:51.543Z,5.88
2022-08-19T08:30:53.476Z,5.90
2022-08-19T08:31:58.593Z,7.22
2022-08-19T08:33:02.687Z,5.80
2022-08-19T08:34:04.924Z,5.30
2022-08-19T08:35:09.280Z,5.93
2022-08-19T08:36:12.548Z,6.45
2022-08-19T08:37:16.153Z,6.07
2022-08-19T08:38:18.873Z,6.68
2022-08-19T08:39:22.660Z,5.93
2022-08-19T08:40:50.996Z,6.85
2022-08-19T08:42:24.807Z,6.15
2022-08-19T08:43:34.257Z,6.45
2022-08-19T08:44:50.374Z,6.70
2022-08-19T08:46:02.769Z,9.15
2022-08-19T08:47:13.454Z,6.80
2022-08-19T08:48:24.655Z,6.15
2022-08-19T08:49:51.293Z,6.72
2022-08-19T08:50:56.058Z,6.85
2022-08-19T08:52:21.452Z,6.75
2022-08-19T08:53:29.857Z,6.70
2022-08-19T08:54:40.515Z,6.82
2022-08-19T08:55:51.539Z,6.35
2022-08-19T08:56:54.777Z,7.00
2022-08-19T08:58:02.891Z,6.95
2022-08-19T08:59:37.445Z,6.35
2022-08-19T09:00:43.692Z,6.80
2022-08-19T09:01:45.752Z,6.85
2022-08-19T09:02:50.389Z,6.95
2022-08-19T09:03:53.198Z,6.75
2022-08-19T09:04:55.850Z,7.00
2022-08-19T09:06:04.541Z,7.25
2022-08-19T09:07:36.345Z,6.95
2022-08-19T09:08:46.582Z,6.65
2022-08-19T09:09:52.344Z,7.20
2022-08-19T09:10:58.690Z,8.40
2022-08-19T09:12:27.172Z,6.95
2022-08-19T09:13:42.978Z,7.38
2022-08-19T09:15:05.825Z,6.80
2022-08-19T09:16:28.956Z,6.90
2022-08-19T09:17:34.612Z,7.45
2022-08-19T09:18:42.998Z,6.85
2022-08-19T09:20:09.793Z,7.15
2022-08-19T09:21:11.857Z,6.90
2022-08-19T09:22:13.959Z,7.70
2022-08-19T09:23:27.305Z,6.80
2022-08-19T09:24:31.198Z,7.60
2022-08-19T09:25:35.503Z,7.55
2022-08-19T09:26:48.551Z,6.20
2022-08-19T09:27:55.868Z,6.30
2022-08-19T09:29:07.896Z,6.82
2022-08-19T09:30:14.461Z,6.82
2022-08-19T09:31:21.080Z,6.88
2022-08-19T09:32:26.661Z,6.68
2022-08-19T09:33:28.997Z,6.10
2022-08-19T09:34:33.255Z,6.97
2022-08-19T09:35:49.759Z,7.50
2022-08-19T09:36:56.564Z,6.32
2022-08-19T09:37:59.783Z,6.90
2022-08-19T09:39:02.368Z,6.18
2022-08-19T09:40:05.230Z,5.57
2022-08-19T09:41:13.391Z,5.97
2022-08-19T09:42:16.422Z,6.45
2022-08-19T09:43:44.119Z,5.72
2022-08-19T09:44:47.524Z,6.32
2022-08-19T09:45:49.345Z,6.00
2022-08-19T09:46:52.003Z,6.50
2022-08-19T09:47:55.201Z,6.88
2022-08-19T09:49:06.127Z,6.80
2022-08-19T09:50:10.902Z,6.65
2022-08-19T09:51:23.669Z,5.88
2022-08-19T09:52:25.524Z,6.32
2022-08-19T09:53:34.764Z,6.18
2022-08-19T09:54:40.207Z,6.63
2022-08-19T09:55:46.154Z,6.20
2022-08-19T09:56:48.140Z,5.97
2022-08-19T09:57:50.113Z,5.88
2022-08-19T09:58:52.303Z,5.70
2022-08-19T09:59:54.735Z,5.90
2022-08-19T10:00:58.369Z,5.53
2022-08-19T10:02:03.848Z,6.30
2022-08-19T10:03:12.728Z,5.40
2022-08-19T10:04:20.093Z,5.57
2022-08-19T10:05:42.474Z,5.70
2022-08-19T10:06:46.661Z,6.03
2022-08-19T10:07:48.919Z,5.82
2022-08-19T10:08:52.646Z,5.57
2022-08-19T10:09:54.663Z,5.70
2022-08-19T10:10:58.982Z,6.25
2022-08-19T10:12:20.544Z,6.00
2022-08-19T10:13:26.228Z,6.25
2022-08-19T10:14:28.493Z,6.00
2022-08-19T10:15:30.313Z,5.60
2022-08-19T10:16:47.085Z,6.13
2022-08-19T10:17:55.294Z,5.13
2022-08-19T10:18:58.759Z,5.60
2022-08-19T10:20:01.108Z,5.60
2022-08-19T10:21:06.373Z,5.38
2022-08-19T10:22:10.110Z,5.70
2022-08-19T10:23:14.593Z,5.18
2022-08-19T10:24:16.425Z,5.18
2022-08-19T10:25:20.485Z,5.80
2022-08-19T10:26:30.979Z,5.65
2022-08-19T10:27:32.877Z,5.10
2022-08-19T10:28:39.771Z,5.03
2022-08-19T10:29:46.300Z,5.05
2022-08-19T10:30:48.717Z,5.15
2022-08-19T10:32:01.236Z,4.82
2022-08-19T10:33:10.820Z,4.80
2022-08-19T10:34:27.159Z,4.70
2022-08-19T10:35:30.545Z,5.13
2022-08-19T10:36:56.162Z,5.00
2022-08-19T10:38:02.103Z,4.88
2022-08-19T10:39:08.694Z,4.80
2022-08-19T10:40:12.455Z,4.75
2022-08-19T10:41:20.222Z,5.43
2022-08-19T10:42:22.227Z,4.45
2022-08-19T10:43:24.633Z,4.57
2022-08-19T10:44:32.065Z,5.10
2022-08-19T10:45:34.512Z,4.68
2022-08-19T10:46:43.539Z,4.78
2022-08-19T10:47:47.941Z,4.40
2022-08-19T10:48:50.865Z,4.78
2022-08-19T10:50:12.965Z,4.60
2022-08-19T10:51:33.532Z,4.65
2022-08-19T10:52:39.108Z,4.93
2022-08-19T10:53:40.993Z,5.07
2022-08-19T10:55:05.159Z,5.13
2022-08-19T10:56:28.721Z,4.82
2022-08-19T10:57:52.292Z,4.70
2022-08-19T10:58:58.592Z,4.97
2022-08-19T11:00:00.453Z,4.97
2022-08-19T11:01:02.325Z,4.93
2022-08-19T11:02:07.013Z,4.97
2022-08-19T11:03:09.684Z,5.03
2022-08-19T11:04:14.764Z,4.35
2022-08-19T11:05:18.212Z,4.78
2022-08-19T11:06:21.587Z,4.75
2022-08-19T11:07:26.207Z,4.75
2022-08-19T11:08:28.613Z,4.85
2022-08-19T11:09:34.088Z,4.28
2022-08-19T11:10:37.472Z,5.40
2022-08-19T11:11:42.526Z,5.15
2022-08-19T11:12:44.278Z,4.25
2022-08-19T11:13:46.953Z,4.80
2022-08-19T11:14:50.915Z,4.65
2022-08-19T11:16:07.739Z,5.25
2022-08-19T11:17:09.782Z,4.65
2022-08-19T11:18:13.351Z,4.00
2022-08-19T11:19:18.213Z,4.32
2022-08-19T11:20:20.115Z,5.53
2022-08-19T11:21:25.309Z,4.93
2022-08-19T11:22:35.403Z,5.00
2022-08-19T11:23:42.858Z,5.03
2022-08-19T11:24:44.675Z,5.00
2022-08-19T11:25:46.920Z,4.50
2022-08-19T11:26:50.952Z,5.30
2022-08-19T11:27:53.404Z,5.45
2022-08-19T11:28:56.382Z,5.00
2022-08-19T11:29:58.243Z,4.40
2022-08-19T11:31:00.289Z,5.32
2022-08-19T11:32:05.843Z,5.10
2022-08-19T11:33:07.711Z,5.55
2022-08-19T11:34:13.260Z,4.50
2022-08-19T11:35:15.502Z,5.00
2022-08-19T11:36:17.722Z,4.70
2022-08-19T11:37:19.544Z,4.63
2022-08-19T11:38:21.503Z,4.85
2022-08-19T11:39:23.838Z,4.88
2022-08-19T11:40:25.648Z,5.85
2022-08-19T11:41:27.919Z,5.22
2022-08-19T11:42:48.256Z,5.78
2022-08-19T11:43:52.105Z,5.20
2022-08-19T11:44:55.092Z,5.25
2022-08-19T11:45:57.540Z,5.40
2022-08-19T11:47:09.214Z,5.72
2022-08-19T11:48:11.466Z,5.28
2022-08-19T11:49:19.735Z,4.88
2022-08-19T11:50:22.153Z,5.97
2022-08-19T11:51:28.138Z,6.05
2022-08-19T11:52:30.645Z,5.32
2022-08-19T11:53:32.811Z,5.97
2022-08-19T11:54:34.680Z,4.80
2022-08-19T11:55:43.411Z,5.38
2022-08-19T11:56:47.217Z,5.90
2022-08-19T11:57:49.086Z,5.00
2022-08-19T11:58:51.887Z,5.60
2022-08-19T11:59:53.992Z,4.97
2022-08-19T12:00:56.013Z,5.60
2022-08-19T12:01:58.879Z,5.15
2022-08-19T12:03:00.716Z,5.20
2022-08-19T12:04:05.473Z,4.88
2022-08-19T12:05:12.000Z,5.43
2022-08-19T12:06:20.959Z,4.95
2022-08-19T12:07:22.894Z,4.97
2022-08-19T12:08:24.763Z,5.15
2022-08-19T12:09:26.897Z,4.78
2022-08-19T12:10:33.815Z,5.63
2022-08-19T12:11:35.719Z,5.13
2022-08-19T12:12:41.444Z,5.05
2022-08-19T12:13:46.893Z,4.90
2022-08-19T12:14:48.943Z,4.97
2022-08-19T12:15:51.093Z,4.95
2022-08-19T12:16:52.944Z,5.28
2022-08-19T12:17:57.455Z,4.80
2022-08-19T12:19:04.564Z,4.90
2022-08-19T12:20:08.692Z,4.35
2022-08-19T12:21:12.142Z,5.28
2022-08-19T12:22:13.965Z,4.93
2022-08-19T12:23:16.273Z,5.15
2022-08-19T12:24:24.084Z,5.68
2022-08-19T12:25:26.104Z,5.85
2022-08-19T12:26:30.727Z,5.60
2022-08-19T12:27:40.889Z,5.03
2022-08-19T12:28:44.292Z,4.32
2022-08-19T12:29:46.094Z,5.05
2022-08-19T12:30:49.510Z,5.32
2022-08-19T12:31:51.983Z,5.55
2022-08-19T12:32:54.520Z,5.07
2022-08-19T12:33:56.540Z,5.38
2022-08-19T12:34:58.415Z,5.00
2022-08-19T12:36:06.856Z,6.13
2022-08-19T12:37:09.238Z,5.53
2022-08-19T12:38:11.863Z,5.40
2022-08-19T12:39:13.947Z,5.30
2022-08-19T12:40:18.937Z,5.53
2022-08-19T12:41:23.175Z,5.28
2022-08-19T12:42:25.292Z,5.70
2022-08-19T12:43:28.121Z,4.78
2022-08-19T12:44:33.600Z,5.68
2022-08-19T12:45:36.047Z,5.22
2022-08-19T12:46:39.330Z,6.25
2022-08-19T12:47:43.725Z,5.82
2022-08-19T12:48:51.093Z,6.15
2022-08-19T12:49:57.575Z,5.20
2022-08-19T12:50:59.590Z,5.60
2022-08-19T12:52:02.236Z,5.78
2022-08-19T12:53:04.057Z,6.47
2022-08-19T12:54:06.099Z,5.93
2022-08-19T12:55:09.510Z,5.75
2022-08-19T12:56:12.961Z,6.38
2022-08-19T12:57:14.936Z,5.90
2022-08-19T12:58:18.144Z,5.88
2022-08-19T12:59:20.086Z,4.90
2022-08-19T13:00:23.228Z,5.30
2022-08-19T13:01:25.174Z,5.80
2022-08-19T13:02:27.557Z,5.97
2022-08-19T13:03:30.759Z,5.93
2022-08-19T13:04:36.225Z,7.13
2022-08-19T13:05:38.094Z,5.53
2022-08-19T13:06:39.950Z,5.45
2022-08-19T13:07:42.227Z,5.05
2022-08-19T13:08:44.039Z,6.63
2022-08-19T13:09:48.461Z,5.95
2022-08-19T13:10:50.371Z,6.15
2022-08-19T13:11:52.186Z,5.13
2022-08-19T13:12:54.303Z,6.13
2022-08-19T13:13:56.339Z,5.70
2022-08-19T13:14:58.323Z,5.65
2022-08-19T13:16:04.519Z,5.97
2022-08-19T13:17:06.378Z,5.90
2022-08-19T13:18:09.993Z,5.30
2022-08-19T13:19:14.214Z,5.88
2022-08-19T13:20:18.678Z,5.88
2022-08-19T13:21:23.924Z,5.43
2022-08-19T13:22:26.040Z,5.80
2022-08-19T13:23:28.048Z,5.78
2022-08-19T13:24:33.936Z,5.72
2022-08-19T13:25:37.219Z,6.30
2022-08-19T13:26:39.016Z,5.50
2022-08-19T13:27:41.387Z,5.97
2022-08-19T13:29:04.188Z,5.88
2022-08-19T13:30:27.834Z,5.80
2022-08-19T13:31:51.436Z,7.13
2022-08-19T13:33:12.173Z,5.97
2022-08-19T13:34:15.623Z,5.47
2022-08-19T13:35:17.870Z,5.45
2022-08-19T13:36:19.849Z,5.93
2022-08-19T13:37:41.706Z,7.47
2022-08-19T13:38:43.576Z,6.20
2022-08-19T13:39:46.201Z,5.75
2022-08-19T13:40:50.633Z,5.95
2022-08-19T13:41:52.463Z,6.40
2022-08-19T13:42:55.961Z,5.90
2022-08-19T13:43:58.439Z,6.20
2022-08-19T13:45:00.605Z,4.93
2022-08-19T13:46:10.850Z,5.38
2022-08-19T13:47:14.960Z,6.47
2022-08-19T13:48:17.573Z,6.00
2022-08-19T13:49:19.987Z,5.28
2022-08-19T13:50:26.585Z,5.28
2022-08-19T13:51:28.399Z,5.57
2022-08-19T13:52:30.601Z,4.85
2022-08-19T13:53:32.409Z,5.93
2022-08-19T13:54:34.533Z,6.65
2022-08-19T13:55:38.504Z,6.00
2022-08-19T13:56:45.945Z,5.57
2022-08-19T13:57:52.847Z,6.03
2022-08-19T13:58:54.982Z,5.90
2022-08-19T14:00:02.496Z,6.75
2022-08-19T14:01:07.486Z,6.88
2022-08-19T14:02:09.417Z,6.50
2022-08-19T14:03:11.666Z,5.50
2022-08-19T14:04:13.463Z,5.55
2022-08-19T14:05:17.393Z,6.47
2022-08-19T14:06:19.480Z,6.55
2022-08-19T14:07:22.624Z,5.15
2022-08-19T14:08:25.337Z,5.60
2022-08-19T14:09:27.100Z,5.85
2022-08-19T14:10:29.485Z,5.68
2022-08-19T14:11:31.482Z,5.57
2022-08-19T14:12:33.777Z,5.57
2022-08-19T14:13:35.670Z,5.70
2022-08-19T14:14:39.497Z,5.97
2022-08-19T14:15:41.464Z,5.78
2022-08-19T14:16:43.840Z,5.18
2022-08-19T14:17:47.815Z,6.28
2022-08-19T14:18:49.760Z,5.63
2022-08-19T14:19:57.872Z,6.10
2022-08-19T14:20:59.708Z,5.00
2022-08-19T14:22:01.501Z,5.72
2022-08-19T14:23:03.513Z,5.68
2022-08-19T14:24:05.608Z,5.28
2022-08-19T14:25:10.028Z,6.57
2022-08-19T14:26:15.298Z,5.55
2022-08-19T14:27:17.397Z,5.65
2022-08-19T14:28:19.180Z,5.78
2022-08-19T14:29:21.150Z,5.78
2022-08-19T14:30:32.736Z,5.20
2022-08-19T14:31:34.636Z,6.10
2022-08-19T14:32:36.583Z,6.07